createdAt,value
2022-12-05T00:01:34.096Z,37.63
2022-12-05T00:04:07.665Z,38.93
2022-12-05T00:06:41.757Z,39.38
2022-12-05T00:09:14.382Z,38.00
2022-12-05T00:11:47.110Z,36.53
2022-12-05T00:14:17.552Z,38.00
2022-12-05T00:16:48.303Z,38.77
2022-12-05T00:19:21.803Z,39.00
2022-12-05T00:21:54.894Z,39.50
2022-12-05T00:24:25.674Z,36.30
2022-12-05T00:27:01.814Z,37.77
2022-12-05T00:29:32.589Z,37.57
2022-12-05T00:32:04.740Z,38.37
2022-12-05T00:34:35.815Z,38.27
2022-12-05T00:37:07.131Z,38.08
2022-12-05T00:39:40.739Z,38.67
2022-12-05T00:42:12.674Z,38.30
2022-12-05T00:44:43.209Z,38.00
2022-12-05T00:47:15.039Z,38.30
2022-12-05T00:49:45.437Z,38.30
2022-12-05T00:52:17.475Z,37.70
2022-12-05T00:54:48.026Z,38.63
2022-12-05T00:57:19.790Z,38.33
2022-12-05T00:59:50.927Z,38.60
2022-12-05T01:02:23.004Z,38.77
2022-12-05T01:04:53.618Z,37.13
2022-12-05T01:07:24.407Z,38.63
2022-12-05T01:09:58.718Z,38.20
2022-12-05T01:12:29.404Z,37.95
2022-12-05T01:15:00.090Z,39.38
2022-12-05T01:17:30.641Z,38.83
2022-12-05T01:20:02.670Z,37.50
2022-12-05T01:22:33.100Z,40.63
2022-12-05T01:25:05.971Z,40.23
2022-12-05T01:27:38.202Z,39.18
2022-12-05T01:30:09.857Z,39.73
2022-12-05T01:32:40.762Z,37.87
2022-12-05T01:35:13.099Z,39.40
2022-12-05T01:37:43.534Z,41.00
2022-12-05T01:40:14.175Z,38.57
2022-12-05T01:42:46.586Z,38.33
2022-12-05T01:45:35.026Z,38.60
2022-12-05T01:48:09.641Z,39.85
2022-12-05T01:50:40.731Z,38.53
2022-12-05T01:53:11.541Z,39.48
2022-12-05T01:55:42.484Z,37.17
2022-12-05T01:58:13.339Z,38.50
2022-12-05T02:00:45.109Z,38.47
2022-12-05T02:03:22.699Z,37.30
2022-12-05T02:05:58.257Z,39.30
2022-12-05T02:08:29.539Z,38.17
2022-12-05T02:11:02.893Z,35.87
2022-12-05T02:13:54.319Z,37.70
2022-12-05T02:16:58.732Z,37.80
2022-12-05T02:20:00.820Z,36.07
2022-12-05T02:23:09.634Z,36.38
2022-12-05T02:26:14.908Z,37.73
2022-12-05T02:29:08.246Z,39.60
2022-12-05T02:31:45.163Z,39.10
2022-12-05T02:34:27.863Z,37.95
2022-12-05T02:37:04.673Z,36.70
2022-12-05T02:39:38.570Z,38.10
2022-12-05T02:42:27.093Z,38.57
2022-12-05T02:45:13.254Z,38.33
2022-12-05T02:47:48.481Z,38.07
2022-12-05T02:50:22.058Z,36.90
2022-12-05T02:52:56.241Z,37.30
2022-12-05T02:55:29.312Z,37.33
2022-12-05T02:58:04.346Z,36.70
2022-12-05T03:00:38.828Z,35.63
2022-12-05T03:03:16.306Z,35.87
2022-12-05T03:05:50.944Z,36.30
2022-12-05T03:08:24.807Z,36.87
2022-12-05T03:10:56.666Z,36.17
2022-12-05T03:13:30.226Z,36.23
2022-12-05T03:16:06.636Z,37.03
2022-12-05T03:18:41.144Z,35.20
2022-12-05T03:21:33.548Z,32.93
2022-12-05T03:24:13.110Z,32.80
2022-12-05T03:27:10.066Z,33.80
2022-12-05T03:30:02.052Z,32.53
2022-12-05T03:32:44.693Z,28.97
2022-12-05T03:35:31.177Z,31.33
2022-12-05T03:38:23.391Z,32.20
2022-12-05T03:41:01.052Z,29.85
2022-12-05T03:43:35.003Z,31.53
2022-12-05T03:46:14.836Z,31.17
2022-12-05T03:48:57.761Z,29.15
2022-12-05T03:51:31.376Z,29.43
2022-12-05T03:54:05.226Z,30.73
2022-12-05T03:56:47.917Z,29.07
2022-12-05T03:59:30.267Z,29.63
2022-12-05T04:02:04.091Z,28.47
2022-12-05T04:04:40.849Z,28.47
2022-12-05T04:07:14.140Z,30.32
2022-12-05T04:09:53.390Z,29.60
2022-12-05T04:12:27.592Z,30.12
2022-12-05T04:15:03.142Z,31.17
2022-12-05T04:17:36.742Z,30.43
2022-12-05T04:20:28.078Z,31.20
2022-12-05T04:22:59.337Z,30.07
2022-12-05T04:25:38.314Z,29.60
2022-12-05T04:28:21.716Z,29.17
2022-12-05T04:31:09.793Z,29.53
2022-12-05T04:33:59.640Z,30.57
2022-12-05T04:36:36.108Z,29.77
2022-12-05T04:39:29.993Z,29.50
2022-12-05T04:42:05.081Z,28.87
2022-12-05T04:44:38.632Z,28.55
2022-12-05T04:47:12.237Z,29.17
2022-12-05T04:49:50.583Z,28.63
2022-12-05T04:52:17.902Z,28.00
2022-12-05T04:54:57.616Z,27.53
2022-12-05T04:57:44.266Z,27.23
2022-12-05T05:00:16.803Z,27.37
2022-12-05T05:02:59.110Z,28.97
2022-12-05T05:05:31.031Z,26.67
2022-12-05T05:08:01.618Z,27.87
2022-12-05T05:10:38.288Z,27.43
2022-12-05T05:13:10.558Z,26.60
2022-12-05T05:15:42.595Z,27.53
2022-12-05T05:18:13.258Z,26.30
2022-12-05T05:20:43.643Z,26.80
2022-12-05T05:23:14.572Z,24.98
2022-12-05T05:25:46.301Z,24.27
2022-12-05T05:28:16.885Z,25.00
2022-12-05T05:30:49.155Z,23.05
2022-12-05T05:33:19.977Z,24.40
2022-12-05T05:35:50.498Z,22.63
2022-12-05T05:38:21.316Z,23.73
2022-12-05T05:40:52.274Z,23.97
2022-12-05T05:43:26.264Z,21.87
2022-12-05T05:45:58.451Z,22.27
2022-12-05T05:48:29.214Z,22.57
2022-12-05T05:51:04.290Z,21.67
2022-12-05T05:53:35.915Z,20.87
2022-12-05T05:56:09.309Z,22.20
2022-12-05T05:58:42.774Z,21.33
2022-12-05T06:01:20.619Z,20.20
2022-12-05T06:03:51.974Z,20.23
2022-12-05T06:06:23.610Z,19.10
2022-12-05T06:08:55.087Z,18.70
2022-12-05T06:11:28.569Z,19.23
2022-12-05T06:14:02.122Z,19.57
2022-12-05T06:16:34.918Z,18.93
2022-12-05T06:19:05.397Z,17.80
2022-12-05T06:21:36.802Z,18.47
2022-12-05T06:24:07.912Z,17.90
2022-12-05T06:26:38.401Z,17.52
2022-12-05T06:29:10.128Z,17.32
2022-12-05T06:31:42.484Z,16.90
2022-12-05T06:34:13.064Z,16.83
2022-12-05T06:36:43.564Z,17.13
2022-12-05T06:39:15.599Z,16.07
2022-12-05T06:41:47.781Z,17.40
2022-12-05T06:44:18.233Z,16.63
2022-12-05T06:46:52.297Z,16.60
2022-12-05T06:49:31.697Z,17.57
2022-12-05T06:52:00.133Z,17.13
2022-12-05T06:54:33.978Z,16.93
2022-12-05T06:57:04.479Z,16.83
2022-12-05T06:59:35.676Z,16.53
2022-12-05T07:02:10.572Z,18.13
2022-12-05T07:04:40.999Z,17.73
2022-12-05T07:07:14.490Z,17.43
2022-12-05T07:09:48.300Z,17.63
2022-12-05T07:12:20.871Z,17.20
2022-12-05T07:14:56.590Z,18.20
2022-12-05T07:17:27.656Z,17.33
2022-12-05T07:19:58.312Z,17.53
2022-12-05T07:22:29.176Z,17.57
2022-12-05T07:24:59.730Z,16.77
2022-12-05T07:27:31.750Z,17.17
2022-12-05T07:30:02.730Z,17.73
2022-12-05T07:32:38.386Z,18.80
2022-12-05T07:35:10.422Z,16.83
2022-12-05T07:37:40.953Z,18.00
2022-12-05T07:40:15.487Z,17.33
2022-12-05T07:42:47.480Z,17.93
2022-12-05T07:45:18.421Z,16.93
2022-12-05T07:47:49.262Z,17.98
2022-12-05T07:50:21.173Z,18.40
2022-12-05T07:52:51.644Z,16.63
2022-12-05T07:55:22.332Z,17.90
2022-12-05T07:57:55.485Z,18.30
2022-12-05T08:00:27.478Z,16.93
2022-12-05T08:02:58.272Z,17.13
2022-12-05T08:05:31.411Z,17.60
2022-12-05T08:08:02.659Z,17.13
2022-12-05T08:10:35.242Z,16.43
2022-12-05T08:13:07.673Z,16.37
2022-12-05T08:15:39.787Z,16.00
2022-12-05T08:18:10.556Z,15.80
2022-12-05T08:20:43.688Z,16.07
2022-12-05T08:23:14.319Z,17.77
2022-12-05T08:25:46.649Z,16.17
2022-12-05T08:28:17.200Z,16.40
2022-12-05T08:30:47.910Z,17.13
2022-12-05T08:33:19.587Z,17.37
2022-12-05T08:35:50.180Z,16.67
2022-12-05T08:38:22.418Z,17.35
2022-12-05T08:40:53.698Z,16.77
2022-12-05T08:43:28.243Z,17.10
2022-12-05T08:45:59.727Z,17.17
2022-12-05T08:48:32.422Z,17.93
2022-12-05T08:51:08.830Z,16.90
2022-12-05T08:53:44.326Z,16.57
2022-12-05T08:56:13.899Z,17.20
2022-12-05T08:58:45.402Z,17.77
2022-12-05T09:01:22.120Z,17.93
2022-12-05T09:03:54.697Z,18.80
2022-12-05T09:06:28.046Z,18.33
2022-12-05T09:09:04.123Z,17.87
2022-12-05T09:11:37.567Z,17.47
2022-12-05T09:14:08.704Z,16.43
2022-12-05T09:16:39.801Z,17.20
2022-12-05T09:19:21.027Z,17.37
2022-12-05T09:21:53.353Z,17.73
2022-12-05T09:24:24.470Z,17.80
2022-12-05T09:26:55.011Z,17.17
2022-12-05T09:29:27.270Z,16.23
2022-12-05T09:31:58.178Z,16.40
2022-12-05T09:34:29.371Z,15.23
2022-12-05T09:37:23.238Z,16.32
2022-12-05T09:39:35.995Z,16.20
2022-12-05T09:42:26.029Z,16.03
2022-12-05T09:45:18.007Z,16.40
2022-12-05T09:48:03.809Z,16.63
2022-12-05T09:50:47.515Z,16.17
2022-12-05T09:53:37.465Z,15.60
2022-12-05T09:56:23.996Z,15.77
2022-12-05T09:58:56.306Z,15.40
2022-12-05T10:01:49.058Z,16.50
2022-12-05T10:04:35.151Z,15.25
2022-12-05T10:07:17.132Z,15.72
2022-12-05T10:10:05.892Z,17.23
2022-12-05T10:13:12.725Z,15.68
2022-12-05T10:16:00.996Z,16.13
2022-12-05T10:18:49.486Z,15.10
2022-12-05T10:21:26.005Z,17.37
2022-12-05T10:23:59.833Z,15.87
2022-12-05T10:26:48.502Z,15.32
2022-12-05T10:29:44.926Z,16.43
2022-12-05T10:32:18.411Z,16.10
2022-12-05T10:34:51.011Z,16.20
2022-12-05T10:37:37.281Z,16.77
2022-12-05T10:40:10.090Z,16.40
2022-12-05T10:42:41.101Z,15.73
2022-12-05T10:45:23.548Z,15.57
2022-12-05T10:47:58.804Z,16.17
2022-12-05T10:50:34.923Z,15.73
2022-12-05T10:53:08.141Z,15.90
2022-12-05T10:56:06.854Z,16.00
2022-12-05T10:58:26.965Z,16.20
2022-12-05T11:01:10.251Z,16.27
2022-12-05T11:03:43.657Z,17.13
2022-12-05T11:06:26.096Z,17.23
2022-12-05T11:09:05.414Z,16.43
2022-12-05T11:11:38.165Z,16.93
2022-12-05T11:14:24.055Z,16.40
2022-12-05T11:16:58.704Z,17.73
2022-12-05T11:19:35.370Z,17.47
2022-12-05T11:22:10.262Z,17.00
2022-12-05T11:24:44.052Z,16.23
2022-12-05T11:27:23.004Z,17.37
2022-12-05T11:29:59.672Z,16.43
2022-12-05T11:32:33.712Z,16.80
2022-12-05T11:35:16.550Z,16.70
2022-12-05T11:38:02.259Z,17.27
2022-12-05T11:40:38.683Z,17.67
2022-12-05T11:43:36.534Z,17.33
2022-12-05T11:46:27.289Z,18.40
2022-12-05T11:49:31.533Z,17.60
2022-12-05T11:52:05.613Z,16.87
2022-12-05T11:55:08.929Z,17.23
2022-12-05T11:57:48.904Z,18.33
2022-12-05T12:00:37.712Z,17.80
2022-12-05T12:03:22.607Z,17.73
2022-12-05T12:06:11.785Z,18.37
2022-12-05T12:09:06.447Z,19.23
2022-12-05T12:11:47.503Z,19.85
2022-12-05T12:14:42.073Z,18.33
2022-12-05T12:17:42.418Z,19.63
2022-12-05T12:20:22.468Z,18.93
2022-12-05T12:23:08.385Z,19.50
2022-12-05T12:26:04.189Z,18.48
2022-12-05T12:28:45.699Z,18.40
2022-12-05T12:31:23.691Z,19.67
2022-12-05T12:34:03.430Z,20.77
2022-12-05T12:36:53.358Z,18.93
2022-12-05T12:39:33.141Z,19.02
2022-12-05T12:42:18.500Z,20.95
2022-12-05T12:45:18.371Z,21.37
2022-12-05T12:48:14.807Z,22.10
2022-12-05T12:50:52.538Z,21.63
2022-12-05T12:53:27.703Z,21.67
2022-12-05T12:56:07.586Z,22.87
2022-12-05T12:59:03.295Z,21.77
2022-12-05T13:02:08.798Z,22.70
2022-12-05T13:04:57.467Z,23.33
2022-12-05T13:07:37.275Z,21.55
2022-12-05T13:10:16.569Z,22.00
2022-12-05T13:12:47.856Z,23.05
2022-12-05T13:15:21.417Z,23.50
2022-12-05T13:17:54.612Z,24.70
2022-12-05T13:20:28.250Z,23.03
2022-12-05T13:23:03.263Z,22.13
2022-12-05T13:25:34.352Z,22.07
2022-12-05T13:28:08.499Z,23.05
2022-12-05T13:30:43.663Z,23.25
2022-12-05T13:33:20.440Z,23.10
2022-12-05T13:36:12.844Z,24.07
2022-12-05T13:38:59.848Z,23.97
2022-12-05T13:42:05.754Z,22.77
2022-12-05T13:44:44.086Z,24.60
2022-12-05T13:47:33.312Z,23.57
2022-12-05T13:50:09.345Z,25.50
2022-12-05T13:52:45.812Z,24.87
2022-12-05T13:55:36.542Z,25.17
2022-12-05T13:58:47.337Z,25.45
2022-12-05T14:01:36.189Z,26.87
2022-12-05T14:04:10.899Z,27.73
2022-12-05T14:06:50.650Z,26.63
2022-12-05T14:09:31.700Z,26.82
2022-12-05T14:12:17.211Z,26.53
2022-12-05T14:15:04.090Z,27.67
2022-12-05T14:17:47.153Z,28.67
2022-12-05T14:20:22.190Z,28.90
2022-12-05T14:23:30.798Z,27.27
2022-12-05T14:26:17.077Z,27.95
2022-12-05T14:29:03.745Z,28.30
2022-12-05T14:31:53.244Z,27.10
2022-12-05T14:34:26.289Z,29.23
2022-12-05T14:36:59.878Z,27.73
2022-12-05T14:39:52.154Z,29.10
2022-12-05T14:42:35.554Z,29.03
2022-12-05T14:45:30.358Z,27.87
2022-12-05T14:48:03.830Z,32.15
2022-12-05T14:50:48.921Z,29.10
2022-12-05T14:53:35.350Z,28.67
2022-12-05T14:56:18.693Z,29.25
2022-12-05T14:59:05.384Z,29.43
2022-12-05T15:01:49.241Z,30.63
2022-12-05T15:04:24.581Z,29.00
2022-12-05T15:06:58.225Z,28.17
2022-12-05T15:09:48.536Z,29.23
2022-12-05T15:12:28.056Z,28.40
2022-12-05T15:15:10.340Z,28.40
2022-12-05T15:17:46.724Z,28.27
2022-12-05T15:20:29.266Z,30.60
2022-12-05T15:23:00.932Z,30.10
2022-12-05T15:25:33.401Z,29.90
2022-12-05T15:28:09.986Z,30.57
2022-12-05T15:30:42.639Z,30.17
2022-12-05T15:33:15.759Z,29.40
2022-12-05T15:35:49.070Z,29.30
2022-12-05T15:38:29.261Z,30.43
2022-12-05T15:41:01.714Z,30.25
2022-12-05T15:43:36.376Z,29.07
2022-12-05T15:46:13.215Z,29.33
2022-12-05T15:48:43.598Z,28.07
2022-12-05T15:51:14.897Z,28.32
2022-12-05T15:53:48.400Z,30.17
2022-12-05T15:56:30.968Z,29.92
2022-12-05T15:59:18.049Z,28.67
2022-12-05T16:01:53.285Z,30.63
2022-12-05T16:04:39.022Z,31.03
2022-12-05T16:07:13.377Z,29.30
2022-12-05T16:09:47.384Z,30.70
2022-12-05T16:12:27.330Z,30.10
2022-12-05T16:15:01.773Z,28.93
2022-12-05T16:17:50.711Z,29.77
2022-12-05T16:20:27.649Z,29.10
2022-12-05T16:23:10.202Z,31.68
2022-12-05T16:25:40.853Z,29.40
2022-12-05T16:28:20.570Z,28.07
2022-12-05T16:31:02.587Z,29.80
2022-12-05T16:33:38.839Z,30.75
2022-12-05T16:36:11.631Z,28.97
2022-12-05T16:38:45.342Z,27.87
2022-12-05T16:41:19.176Z,28.40
2022-12-05T16:43:52.993Z,28.57
2022-12-05T16:46:39.827Z,27.48
2022-12-05T16:49:22.563Z,27.48
2022-12-05T16:51:59.416Z,26.87
2022-12-05T16:54:30.759Z,27.37
2022-12-05T16:57:15.037Z,27.73
2022-12-05T16:59:49.252Z,29.17
2022-12-05T17:02:20.460Z,28.10
2022-12-05T17:04:54.759Z,32.90
2022-12-05T17:07:31.029Z,30.40
2022-12-05T17:10:00.853Z,29.73
2022-12-05T17:12:31.963Z,30.05
2022-12-05T17:15:03.906Z,31.40
2022-12-05T17:17:35.835Z,32.08
2022-12-05T17:20:07.397Z,31.20
2022-12-05T17:22:39.373Z,30.02
2022-12-05T17:25:29.531Z,29.80
2022-12-05T17:28:01.940Z,27.13
2022-12-05T17:30:35.215Z,30.00
2022-12-05T17:33:08.016Z,26.87
2022-12-05T17:35:41.587Z,28.17
2022-12-05T17:38:14.588Z,29.75
2022-12-05T17:40:49.239Z,29.60
2022-12-05T17:43:24.981Z,30.00
2022-12-05T17:45:54.206Z,26.80
2022-12-05T17:48:28.676Z,29.53
2022-12-05T17:50:59.335Z,28.40
2022-12-05T17:53:32.243Z,28.77
2022-12-05T17:56:04.491Z,29.53
2022-12-05T17:58:35.133Z,26.93
2022-12-05T18:01:08.811Z,29.42
2022-12-05T18:03:40.242Z,28.23
2022-12-05T18:06:12.799Z,27.62
2022-12-05T18:08:46.113Z,25.80
2022-12-05T18:11:19.583Z,25.12
2022-12-05T18:13:52.767Z,23.92
2022-12-05T18:16:23.456Z,25.00
2022-12-05T18:18:57.024Z,24.52
2022-12-05T18:21:28.044Z,24.23
2022-12-05T18:23:58.610Z,22.77
2022-12-05T18:26:29.932Z,22.87
2022-12-05T18:29:00.624Z,21.60
2022-12-05T18:31:36.424Z,22.00
2022-12-05T18:34:07.006Z,21.57
2022-12-05T18:36:38.043Z,20.80
2022-12-05T18:39:11.533Z,21.40
2022-12-05T18:41:43.544Z,20.52
2022-12-05T18:44:15.838Z,20.50
2022-12-05T18:46:46.447Z,20.70
2022-12-05T18:49:17.659Z,20.17
2022-12-05T18:51:49.584Z,20.88
2022-12-05T18:54:20.111Z,21.20
2022-12-05T18:56:54.168Z,20.02
2022-12-05T18:59:26.328Z,20.63
2022-12-05T19:01:58.830Z,20.67
2022-12-05T19:04:30.212Z,19.57
2022-12-05T19:07:03.447Z,20.45
2022-12-05T19:09:35.575Z,21.07
2022-12-05T19:12:07.887Z,20.85
2022-12-05T19:14:38.889Z,21.70
2022-12-05T19:17:09.718Z,21.45
2022-12-05T19:19:40.669Z,22.17
2022-12-05T19:22:12.830Z,21.33
2022-12-05T19:24:46.473Z,21.33
2022-12-05T19:27:17.246Z,20.48
2022-12-05T19:29:47.705Z,22.35
2022-12-05T19:32:19.995Z,21.68
2022-12-05T19:34:51.456Z,21.97
2022-12-05T19:37:21.941Z,20.57
2022-12-05T19:39:52.579Z,21.80
2022-12-05T19:42:24.638Z,22.75
2022-12-05T19:45:00.951Z,22.55
2022-12-05T19:47:36.263Z,21.82
2022-12-05T19:50:08.384Z,22.13
2022-12-05T19:52:39.565Z,20.68
2022-12-05T19:55:10.738Z,23.55
2022-12-05T19:57:41.397Z,23.32
2022-12-05T20:00:12.441Z,23.27
2022-12-05T20:02:45.561Z,23.32
2022-12-05T20:05:15.466Z,25.03
2022-12-05T20:07:48.792Z,23.70
2022-12-05T20:10:19.474Z,24.95
2022-12-05T20:12:50.145Z,25.32
2022-12-05T20:15:22.719Z,26.05
2022-12-05T20:17:53.511Z,27.02
2022-12-05T20:20:25.271Z,26.35
2022-12-05T20:22:55.773Z,25.53
2022-12-05T20:25:27.867Z,25.88
2022-12-05T20:27:59.179Z,25.43
2022-12-05T20:30:30.581Z,26.48
2022-12-05T20:33:02.938Z,25.43
2022-12-05T20:35:40.597Z,24.57
2022-12-05T20:38:13.279Z,26.53
2022-12-05T20:40:43.758Z,26.33
2022-12-05T20:43:15.859Z,25.70
2022-12-05T20:45:46.433Z,24.75
2022-12-05T20:48:16.914Z,25.82
2022-12-05T20:50:47.591Z,24.80
2022-12-05T20:53:20.375Z,23.15
2022-12-05T20:55:52.068Z,23.00
2022-12-05T20:58:23.061Z,22.60
2022-12-05T21:01:01.527Z,21.10
2022-12-05T21:03:32.327Z,22.07
2022-12-05T21:06:12.241Z,21.62
2022-12-05T21:08:43.540Z,20.47
2022-12-05T21:11:15.023Z,21.97
2022-12-05T21:13:46.472Z,21.50
2022-12-05T21:16:20.087Z,21.55
2022-12-05T21:18:53.483Z,21.20
2022-12-05T21:21:27.021Z,19.92
2022-12-05T21:24:02.856Z,19.70
2022-12-05T21:26:35.613Z,19.27
2022-12-05T21:29:08.496Z,20.65
2022-12-05T21:31:42.200Z,18.53
2022-12-05T21:34:21.577Z,19.98
2022-12-05T21:36:53.708Z,18.15
2022-12-05T21:39:24.149Z,19.02
2022-12-05T21:41:58.348Z,19.20
2022-12-05T21:44:28.685Z,18.55
2022-12-05T21:46:59.854Z,17.40
2022-12-05T21:49:30.335Z,16.73
2022-12-05T21:52:00.962Z,17.35
2022-12-05T21:54:31.480Z,17.13
2022-12-05T21:57:02.873Z,18.02
2022-12-05T21:59:33.333Z,17.57
2022-12-05T22:02:04.421Z,17.87
2022-12-05T22:04:35.592Z,18.05
2022-12-05T22:07:08.405Z,17.73
2022-12-05T22:09:38.764Z,17.90
2022-12-05T22:12:10.130Z,17.60
2022-12-05T22:14:40.602Z,18.65
2022-12-05T22:17:12.745Z,19.97
2022-12-05T22:19:43.212Z,17.98
2022-12-05T22:22:13.760Z,17.42
2022-12-05T22:24:46.448Z,17.23
2022-12-05T22:27:17.142Z,16.75
2022-12-05T22:29:52.541Z,17.73
2022-12-05T22:32:21.618Z,16.20
2022-12-05T22:34:52.186Z,15.98
2022-12-05T22:37:22.647Z,16.55
2022-12-05T22:39:53.731Z,16.63
2022-12-05T22:42:24.149Z,16.30
2022-12-05T22:44:56.013Z,15.32
2022-12-05T22:47:26.457Z,17.02
2022-12-05T22:49:57.279Z,17.15
2022-12-05T22:52:30.741Z,16.42
2022-12-05T22:55:01.518Z,16.37
2022-12-05T22:57:34.551Z,16.82
2022-12-05T23:00:07.562Z,16.70
2022-12-05T23:02:38.175Z,16.07
2022-12-05T23:05:09.565Z,15.28
2022-12-05T23:07:41.535Z,14.90
2022-12-05T23:10:12.259Z,14.45
2022-12-05T23:12:44.660Z,15.18
2022-12-05T23:15:15.004Z,14.97
2022-12-05T23:17:48.269Z,15.20
2022-12-05T23:20:18.826Z,15.48
2022-12-05T23:22:49.213Z,15.13
2022-12-05T23:25:21.391Z,15.83
2022-12-05T23:27:52.003Z,14.90
2022-12-05T23:30:22.524Z,16.20
2022-12-05T23:32:52.977Z,15.13
2022-12-05T23:35:23.452Z,14.95
2022-12-05T23:37:54.746Z,15.47
2022-12-05T23:40:25.176Z,14.57
2022-12-05T23:42:55.624Z,15.93
2022-12-05T23:45:26.837Z,13.60
2022-12-05T23:48:01.715Z,14.63
2022-12-05T23:50:29.464Z,13.60
2022-12-05T23:52:59.939Z,13.80
2022-12-05T23:55:30.343Z,13.03
2022-12-05T23:58:02.992Z,13.30
